createdAt,value
2023-03-16T00:00:58.294Z,-0.90
2023-03-16T00:03:30.911Z,-0.80
2023-03-16T00:05:59.346Z,-0.70
2023-03-16T00:08:27.694Z,-0.70
2023-03-16T00:10:56.132Z,-0.50
2023-03-16T00:13:26.176Z,-0.40
2023-03-16T00:15:57.756Z,-0.30
2023-03-16T00:18:28.972Z,-0.20
2023-03-16T00:21:02.200Z,-0.10
2023-03-16T00:23:35.652Z,-0.10
2023-03-16T00:26:06.475Z,0.00
2023-03-16T00:28:36.902Z,-0.10
2023-03-16T00:31:08.566Z,-0.10
2023-03-16T00:33:36.915Z,-0.20
2023-03-16T00:36:09.581Z,-0.20
2023-03-16T00:38:39.632Z,-0.20
2023-03-16T00:41:09.441Z,-0.30
2023-03-16T00:43:41.863Z,-0.30
2023-03-16T00:46:13.017Z,-0.40
2023-03-16T00:48:43.644Z,-0.40
2023-03-16T00:51:14.941Z,-0.50
2023-03-16T00:53:45.699Z,-0.50
2023-03-16T00:56:14.377Z,-0.60
2023-03-16T00:58:44.210Z,-0.70
2023-03-16T01:01:16.300Z,-0.70
2023-03-16T01:03:48.001Z,-0.80
2023-03-16T01:06:20.649Z,-0.80
2023-03-16T01:08:49.049Z,-0.80
2023-03-16T01:11:19.998Z,-0.90
2023-03-16T01:13:49.346Z,-0.90
2023-03-16T01:16:19.690Z,-1.00
2023-03-16T01:18:47.967Z,-1.00
2023-03-16T01:21:16.759Z,-1.10
2023-03-16T01:23:45.257Z,-1.20
2023-03-16T01:26:15.305Z,-1.20
2023-03-16T01:28:44.463Z,-1.20
2023-03-16T01:31:15.403Z,-1.30
2023-03-16T01:33:45.751Z,-1.30
2023-03-16T01:36:15.958Z,-1.40
2023-03-16T01:38:47.946Z,-1.40
2023-03-16T01:41:26.210Z,-1.40
2023-03-16T01:44:00.484Z,-1.40
2023-03-16T01:46:30.322Z,-1.40
2023-03-16T01:49:08.334Z,-1.40
2023-03-16T01:51:51.812Z,-1.40
2023-03-16T01:54:27.777Z,-1.50
2023-03-16T01:57:05.982Z,-1.50
2023-03-16T01:59:39.207Z,-1.50
2023-03-16T02:02:09.735Z,-1.50
2023-03-16T02:04:46.028Z,-1.40
2023-03-16T02:07:17.310Z,-1.50
2023-03-16T02:09:50.047Z,-1.50
2023-03-16T02:12:22.916Z,-1.50
2023-03-16T02:14:52.242Z,-1.50
2023-03-16T02:17:22.764Z,-1.60
2023-03-16T02:20:06.040Z,-1.60
2023-03-16T02:22:36.437Z,-1.60
2023-03-16T02:25:05.877Z,-1.60
2023-03-16T02:27:47.549Z,-1.60
2023-03-16T02:30:20.174Z,-1.60
2023-03-16T02:32:51.617Z,-1.60
2023-03-16T02:35:21.171Z,-1.70
2023-03-16T02:37:49.654Z,-1.70
2023-03-16T02:40:25.461Z,-1.70
2023-03-16T02:43:02.874Z,-1.70
2023-03-16T02:45:43.968Z,-1.70
2023-03-16T02:48:17.938Z,-1.70
2023-03-16T02:50:54.052Z,-1.60
2023-03-16T02:53:25.248Z,-1.70
2023-03-16T02:55:54.080Z,-1.70
2023-03-16T02:58:22.777Z,-1.70
2023-03-16T03:00:53.338Z,-1.70
2023-03-16T03:03:24.764Z,-1.70
2023-03-16T03:05:53.120Z,-1.70
2023-03-16T03:08:22.957Z,-1.70
2023-03-16T03:10:51.891Z,-1.70
2023-03-16T03:13:24.176Z,-1.70
2023-03-16T03:15:53.968Z,-1.70
2023-03-16T03:18:25.364Z,-1.60
2023-03-16T03:20:53.976Z,-1.70
2023-03-16T03:23:22.688Z,-1.70
2023-03-16T03:25:51.166Z,-1.70
2023-03-16T03:28:19.711Z,-1.80
2023-03-16T03:30:58.757Z,-1.80
2023-03-16T03:33:36.497Z,-1.80
2023-03-16T03:36:05.637Z,-1.80
2023-03-16T03:38:34.271Z,-1.70
2023-03-16T03:41:08.866Z,-1.70
2023-03-16T03:43:37.181Z,-1.70
2023-03-16T03:46:07.540Z,-1.70
2023-03-16T03:48:35.919Z,-1.70
2023-03-16T03:51:05.625Z,-1.60
2023-03-16T03:53:34.034Z,-1.60
2023-03-16T03:56:02.261Z,-1.60
2023-03-16T03:58:30.755Z,-1.60
2023-03-16T04:00:59.039Z,-1.60
2023-03-16T04:03:28.778Z,-1.60
2023-03-16T04:05:57.920Z,-1.50
2023-03-16T04:08:26.219Z,-1.60
2023-03-16T04:10:54.587Z,-1.50
2023-03-16T04:13:24.117Z,-1.50
2023-03-16T04:15:58.247Z,-1.50
2023-03-16T04:18:28.151Z,-1.50
2023-03-16T04:20:56.543Z,-1.50
2023-03-16T04:23:26.080Z,-1.40
2023-03-16T04:25:54.884Z,-1.40
2023-03-16T04:28:23.177Z,-1.30
2023-03-16T04:30:51.453Z,-1.30
2023-03-16T04:33:19.989Z,-1.30
2023-03-16T04:35:49.671Z,-1.20
2023-03-16T04:38:18.163Z,-1.20
2023-03-16T04:40:46.389Z,-1.00
2023-03-16T04:43:14.853Z,-1.00
2023-03-16T04:45:43.409Z,-0.90
2023-03-16T04:48:11.771Z,-0.80
2023-03-16T04:50:40.394Z,-0.70
2023-03-16T04:53:10.283Z,-0.40
2023-03-16T04:55:38.601Z,-0.10
2023-03-16T04:58:07.021Z,0.30
2023-03-16T05:00:35.351Z,0.60
2023-03-16T05:03:04.452Z,0.90
2023-03-16T05:05:32.889Z,1.10
2023-03-16T05:08:06.115Z,1.40
2023-03-16T05:10:36.389Z,1.50
2023-03-16T05:13:04.881Z,1.60
2023-03-16T05:15:33.946Z,1.70
2023-03-16T05:18:02.770Z,1.70
2023-03-16T05:20:31.972Z,1.80
2023-03-16T05:23:00.606Z,1.90
2023-03-16T05:25:29.897Z,1.90
2023-03-16T05:27:59.870Z,2.00
2023-03-16T05:30:28.498Z,2.10
2023-03-16T05:32:58.090Z,2.00
2023-03-16T05:35:26.618Z,2.10
2023-03-16T05:37:55.136Z,2.20
2023-03-16T05:40:23.879Z,2.20
2023-03-16T05:43:00.464Z,2.30
2023-03-16T05:45:29.825Z,2.40
2023-03-16T05:47:58.288Z,2.40
2023-03-16T05:50:27.197Z,2.50
2023-03-16T05:52:55.767Z,2.50
2023-03-16T05:55:24.052Z,2.50
2023-03-16T05:57:52.564Z,2.60
2023-03-16T06:00:25.818Z,2.60
2023-03-16T06:02:54.759Z,2.60
2023-03-16T06:05:24.577Z,2.70
2023-03-16T06:07:53.574Z,2.70
2023-03-16T06:10:22.377Z,2.80
2023-03-16T06:12:50.670Z,2.80
2023-03-16T06:15:19.183Z,2.80
2023-03-16T06:17:48.914Z,2.90
2023-03-16T06:20:17.600Z,2.90
2023-03-16T06:22:46.346Z,3.00
2023-03-16T06:25:15.685Z,3.10
2023-03-16T06:27:44.588Z,3.10
2023-03-16T06:30:14.755Z,3.10
2023-03-16T06:32:43.423Z,3.10
2023-03-16T06:35:13.599Z,3.20
2023-03-16T06:37:42.047Z,3.20
2023-03-16T06:40:11.505Z,3.20
2023-03-16T06:42:39.788Z,3.20
2023-03-16T06:45:09.265Z,3.20
2023-03-16T06:47:37.609Z,3.30
2023-03-16T06:50:06.808Z,3.40
2023-03-16T06:52:36.494Z,3.50
2023-03-16T06:55:05.396Z,3.50
2023-03-16T06:57:33.681Z,3.50
2023-03-16T07:00:03.735Z,3.60
2023-03-16T07:02:32.357Z,3.70
2023-03-16T07:05:01.244Z,3.80
2023-03-16T07:07:29.510Z,3.80
2023-03-16T07:09:59.362Z,3.90
2023-03-16T07:12:27.701Z,4.00
2023-03-16T07:14:56.210Z,4.20
2023-03-16T07:17:24.510Z,4.30
2023-03-16T07:19:52.778Z,4.30
2023-03-16T07:22:22.100Z,4.50
2023-03-16T07:24:56.038Z,4.60
2023-03-16T07:27:26.292Z,4.60
2023-03-16T07:29:54.929Z,4.70
2023-03-16T07:32:23.425Z,4.90
2023-03-16T07:34:51.710Z,5.10
2023-03-16T07:37:25.017Z,5.20
2023-03-16T07:39:53.886Z,5.10
2023-03-16T07:42:22.860Z,5.00
2023-03-16T07:44:52.985Z,4.90
2023-03-16T07:47:22.140Z,4.90
2023-03-16T07:49:51.760Z,4.90
2023-03-16T07:52:20.097Z,4.90
2023-03-16T07:54:48.996Z,5.00
2023-03-16T07:57:17.481Z,5.00
2023-03-16T07:59:46.021Z,5.00
2023-03-16T08:02:17.203Z,5.00
2023-03-16T08:04:45.706Z,5.10
2023-03-16T08:07:15.423Z,5.20
2023-03-16T08:09:44.358Z,5.30
2023-03-16T08:12:12.731Z,5.40
2023-03-16T08:14:41.031Z,5.40
2023-03-16T08:17:09.440Z,5.60
2023-03-16T08:19:39.794Z,5.70
2023-03-16T08:22:08.151Z,5.70
2023-03-16T08:24:36.571Z,5.70
2023-03-16T08:27:05.078Z,5.70
2023-03-16T08:29:34.549Z,5.80
2023-03-16T08:32:03.158Z,5.90
2023-03-16T08:34:31.893Z,6.00
2023-03-16T08:37:02.106Z,6.00
2023-03-16T08:39:30.408Z,6.00
2023-03-16T08:41:58.687Z,6.10
2023-03-16T08:44:27.664Z,6.20
2023-03-16T08:47:00.026Z,6.30
2023-03-16T08:49:31.349Z,6.30
2023-03-16T08:52:01.772Z,6.40
2023-03-16T08:54:30.301Z,6.50
2023-03-16T08:56:58.718Z,6.50
2023-03-16T08:59:30.096Z,6.60
2023-03-16T09:01:59.264Z,6.90
2023-03-16T09:04:28.462Z,7.00
2023-03-16T09:07:08.265Z,7.20
2023-03-16T09:09:39.554Z,7.40
2023-03-16T09:12:08.635Z,7.40
2023-03-16T09:14:38.572Z,7.50
2023-03-16T09:17:07.785Z,7.50
2023-03-16T09:19:53.850Z,7.70
2023-03-16T09:22:24.227Z,7.80
2023-03-16T09:24:53.899Z,7.90
2023-03-16T09:27:22.626Z,8.00
2023-03-16T09:29:53.168Z,8.00
2023-03-16T09:32:21.781Z,8.00
2023-03-16T09:34:50.683Z,8.10
2023-03-16T09:37:18.963Z,8.20
2023-03-16T09:39:47.563Z,8.70
2023-03-16T09:42:20.942Z,9.20
2023-03-16T09:45:00.626Z,9.60
2023-03-16T09:47:32.133Z,9.50
2023-03-16T09:50:03.269Z,9.90
2023-03-16T09:52:39.560Z,10.10
2023-03-16T09:55:17.779Z,10.10
2023-03-16T09:58:07.101Z,9.80
2023-03-16T10:00:39.884Z,10.10
2023-03-16T10:03:18.708Z,10.30
2023-03-16T10:05:57.214Z,10.20
2023-03-16T10:08:27.192Z,9.70
2023-03-16T10:11:25.834Z,9.90
2023-03-16T10:14:07.141Z,9.80
2023-03-16T10:16:39.734Z,9.70
2023-03-16T10:19:14.354Z,9.90
2023-03-16T10:21:43.311Z,9.90
2023-03-16T10:24:25.339Z,10.10
2023-03-16T10:27:00.452Z,10.00
2023-03-16T10:29:34.002Z,9.90
2023-03-16T10:32:09.839Z,9.90
2023-03-16T10:34:38.097Z,9.80
2023-03-16T10:37:09.248Z,9.60
2023-03-16T10:39:43.066Z,9.70
2023-03-16T10:42:17.796Z,9.70
2023-03-16T10:44:48.088Z,9.90
2023-03-16T10:47:21.255Z,10.10
2023-03-16T10:49:51.432Z,10.30
2023-03-16T10:52:24.954Z,10.50
2023-03-16T10:54:56.599Z,10.40
2023-03-16T10:57:26.668Z,10.50
2023-03-16T11:00:00.732Z,10.20
2023-03-16T11:02:34.819Z,10.50
2023-03-16T11:05:16.108Z,10.60
2023-03-16T11:07:59.414Z,10.80
2023-03-16T11:10:33.318Z,11.00
2023-03-16T11:13:04.949Z,10.90
2023-03-16T11:15:44.148Z,10.80
2023-03-16T11:18:29.646Z,10.70
2023-03-16T11:20:59.436Z,10.60
2023-03-16T11:23:33.585Z,10.30
2023-03-16T11:26:06.835Z,10.30
2023-03-16T11:28:38.773Z,10.30
2023-03-16T11:31:24.468Z,10.10
2023-03-16T11:33:55.536Z,10.10
2023-03-16T11:36:39.002Z,10.00
2023-03-16T11:39:15.418Z,10.20
2023-03-16T11:41:55.998Z,10.30
2023-03-16T11:44:32.049Z,10.50
2023-03-16T11:47:09.055Z,10.40
2023-03-16T11:49:58.199Z,10.40
2023-03-16T11:52:36.894Z,10.50
2023-03-16T11:55:20.566Z,10.40
2023-03-16T11:57:59.975Z,10.00
2023-03-16T12:00:36.906Z,9.90
2023-03-16T12:03:36.853Z,9.90
2023-03-16T12:06:23.304Z,9.90
2023-03-16T12:09:16.164Z,9.80
2023-03-16T12:11:50.476Z,9.70
2023-03-16T12:14:24.502Z,9.80
2023-03-16T12:17:01.069Z,9.70
2023-03-16T12:19:42.237Z,9.80
2023-03-16T12:22:18.626Z,9.90
2023-03-16T12:24:48.219Z,9.70
2023-03-16T12:27:20.294Z,9.70
2023-03-16T12:29:58.524Z,9.80
2023-03-16T12:32:37.215Z,9.70
2023-03-16T12:35:18.289Z,9.70
2023-03-16T12:37:58.698Z,9.70
2023-03-16T12:40:39.656Z,9.70
2023-03-16T12:43:29.890Z,9.80
2023-03-16T12:46:05.628Z,10.00
2023-03-16T12:48:39.036Z,10.20
2023-03-16T12:51:08.766Z,10.40
2023-03-16T12:53:46.047Z,10.50
2023-03-16T12:56:17.662Z,10.60
2023-03-16T12:58:48.664Z,10.50
2023-03-16T13:01:20.068Z,10.60
2023-03-16T13:03:50.876Z,10.40
2023-03-16T13:06:24.579Z,10.40
2023-03-16T13:08:58.000Z,10.30
2023-03-16T13:11:27.181Z,10.40
2023-03-16T13:14:12.890Z,10.30
2023-03-16T13:16:44.280Z,10.10
2023-03-16T13:19:26.452Z,10.10
2023-03-16T13:22:22.089Z,10.10
2023-03-16T13:24:55.509Z,10.00
2023-03-16T13:27:27.603Z,10.00
2023-03-16T13:29:59.017Z,10.00
2023-03-16T13:32:32.880Z,10.10
2023-03-16T13:35:03.394Z,10.20
2023-03-16T13:37:33.453Z,10.10
2023-03-16T13:40:04.868Z,10.10
2023-03-16T13:42:34.725Z,10.10
2023-03-16T13:45:14.437Z,10.40
2023-03-16T13:47:44.712Z,10.50
2023-03-16T13:50:15.088Z,10.70
2023-03-16T13:52:55.569Z,10.70
2023-03-16T13:55:32.248Z,10.80
2023-03-16T13:58:01.877Z,11.00
2023-03-16T14:00:34.701Z,10.90
2023-03-16T14:03:14.548Z,10.80
2023-03-16T14:05:42.956Z,10.90
2023-03-16T14:08:20.136Z,10.60
2023-03-16T14:10:48.991Z,10.50
2023-03-16T14:13:27.601Z,10.40
2023-03-16T14:15:57.244Z,10.50
2023-03-16T14:18:32.174Z,10.50
2023-03-16T14:21:00.588Z,10.40
2023-03-16T14:23:36.924Z,10.50
2023-03-16T14:26:06.797Z,10.50
2023-03-16T14:28:35.888Z,10.50
2023-03-16T14:31:06.624Z,10.40
2023-03-16T14:33:37.474Z,10.40
2023-03-16T14:36:13.708Z,10.40
2023-03-16T14:38:45.076Z,10.20
2023-03-16T14:41:23.656Z,10.20
2023-03-16T14:43:58.527Z,10.20
2023-03-16T14:46:30.844Z,10.20
2023-03-16T14:49:05.429Z,10.10
2023-03-16T14:51:34.904Z,10.10
2023-03-16T14:54:12.180Z,10.10
2023-03-16T14:56:42.462Z,10.10
2023-03-16T14:59:10.995Z,10.20
2023-03-16T15:01:39.496Z,10.30
2023-03-16T15:04:08.533Z,10.50
2023-03-16T15:06:37.005Z,10.70
2023-03-16T15:09:07.819Z,10.90
2023-03-16T15:11:36.112Z,11.10
2023-03-16T15:14:35.568Z,11.30
2023-03-16T15:17:04.403Z,11.50
2023-03-16T15:19:32.645Z,11.50
2023-03-16T15:22:02.939Z,11.20
2023-03-16T15:24:33.443Z,11.00
2023-03-16T15:27:02.399Z,11.00
2023-03-16T15:29:30.764Z,10.80
2023-03-16T15:31:59.158Z,10.70
2023-03-16T15:34:27.570Z,10.70
2023-03-16T15:36:56.365Z,10.70
2023-03-16T15:39:26.304Z,10.60
2023-03-16T15:41:56.566Z,10.50
2023-03-16T15:44:24.945Z,10.60
2023-03-16T15:46:55.368Z,10.80
2023-03-16T15:49:24.352Z,10.90
2023-03-16T15:51:52.795Z,11.10
2023-03-16T15:54:21.346Z,11.20
2023-03-16T15:56:54.706Z,11.20
2023-03-16T15:59:27.224Z,11.00
2023-03-16T16:01:55.811Z,11.20
2023-03-16T16:04:25.781Z,11.30
2023-03-16T16:06:55.572Z,11.00
2023-03-16T16:09:24.484Z,11.10
2023-03-16T16:11:53.022Z,11.00
2023-03-16T16:14:26.685Z,11.10
2023-03-16T16:16:55.298Z,11.10
2023-03-16T16:19:23.839Z,11.10
2023-03-16T16:21:53.023Z,10.90
2023-03-16T16:24:22.581Z,10.80
2023-03-16T16:26:54.952Z,10.80
2023-03-16T16:29:30.135Z,10.80
2023-03-16T16:31:59.181Z,10.80
2023-03-16T16:34:28.154Z,10.50
2023-03-16T16:36:57.752Z,10.30
2023-03-16T16:39:27.462Z,10.20
2023-03-16T16:41:57.134Z,10.10
2023-03-16T16:44:33.557Z,10.00
2023-03-16T16:47:03.731Z,10.00
2023-03-16T16:49:35.269Z,10.00
2023-03-16T16:52:03.756Z,9.90
2023-03-16T16:54:33.759Z,9.90
2023-03-16T16:57:03.179Z,9.80
2023-03-16T16:59:35.002Z,9.70
2023-03-16T17:02:14.143Z,9.70
2023-03-16T17:04:42.544Z,9.60
2023-03-16T17:07:13.687Z,9.60
2023-03-16T17:09:42.064Z,9.60
2023-03-16T17:12:17.982Z,9.60
2023-03-16T17:14:48.149Z,9.50
2023-03-16T17:17:18.119Z,9.40
2023-03-16T17:19:48.564Z,9.30
2023-03-16T17:22:24.775Z,9.20
2023-03-16T17:24:54.146Z,9.10
2023-03-16T17:27:27.401Z,9.10
2023-03-16T17:29:58.085Z,9.00
2023-03-16T17:32:26.879Z,8.90
2023-03-16T17:34:55.433Z,8.80
2023-03-16T17:37:24.289Z,8.80
2023-03-16T17:39:56.248Z,8.70
2023-03-16T17:42:26.544Z,8.60
2023-03-16T17:44:56.319Z,8.60
2023-03-16T17:47:26.598Z,8.50
2023-03-16T17:49:55.956Z,8.40
2023-03-16T17:52:26.426Z,8.40
2023-03-16T17:54:55.641Z,8.40
2023-03-16T17:57:27.501Z,8.40
2023-03-16T17:59:57.648Z,8.40
2023-03-16T18:02:39.569Z,8.40
2023-03-16T18:05:10.372Z,8.30
2023-03-16T18:07:38.734Z,8.20
2023-03-16T18:10:07.849Z,8.20
2023-03-16T18:12:36.266Z,8.20
2023-03-16T18:15:06.706Z,8.20
2023-03-16T18:17:36.106Z,8.20
2023-03-16T18:20:05.620Z,8.10
2023-03-16T18:22:34.252Z,8.00
2023-03-16T18:25:22.696Z,8.10
2023-03-16T18:27:51.416Z,8.00
2023-03-16T18:30:21.685Z,8.00
2023-03-16T18:32:50.312Z,8.00
2023-03-16T18:35:20.957Z,8.00
2023-03-16T18:37:49.901Z,7.90
2023-03-16T18:40:20.130Z,7.90
2023-03-16T18:42:48.838Z,8.00
2023-03-16T18:45:17.617Z,8.00
2023-03-16T18:47:52.127Z,8.00
2023-03-16T18:50:24.018Z,8.00
2023-03-16T18:52:53.759Z,8.00
2023-03-16T18:55:24.927Z,8.00
2023-03-16T18:57:56.538Z,8.00
2023-03-16T19:00:29.208Z,8.00
2023-03-16T19:03:03.212Z,8.00
2023-03-16T19:05:35.822Z,8.00
2023-03-16T19:08:06.400Z,8.00
2023-03-16T19:10:37.556Z,8.00
2023-03-16T19:13:11.037Z,7.90
2023-03-16T19:15:39.812Z,8.00
2023-03-16T19:18:12.822Z,8.00
2023-03-16T19:20:44.084Z,8.00
2023-03-16T19:23:19.891Z,8.00
2023-03-16T19:25:49.130Z,8.00
2023-03-16T19:28:22.743Z,8.00
2023-03-16T19:30:51.222Z,8.00
2023-03-16T19:33:23.676Z,8.00
2023-03-16T19:35:52.714Z,8.00
2023-03-16T19:38:21.668Z,8.00
2023-03-16T19:40:53.319Z,8.00
2023-03-16T19:43:22.913Z,8.00
2023-03-16T19:45:52.228Z,8.00
2023-03-16T19:48:28.043Z,7.90
2023-03-16T19:50:56.447Z,7.90
2023-03-16T19:53:26.868Z,7.90
2023-03-16T19:55:55.952Z,7.90
2023-03-16T19:58:32.142Z,7.90
2023-03-16T20:01:01.129Z,7.90
2023-03-16T20:03:34.319Z,7.80
2023-03-16T20:06:02.996Z,7.70
2023-03-16T20:08:32.159Z,7.70
2023-03-16T20:11:04.525Z,7.70
2023-03-16T20:13:33.833Z,7.70
2023-03-16T20:16:02.151Z,7.60
2023-03-16T20:18:32.482Z,7.60
2023-03-16T20:21:01.525Z,7.60
2023-03-16T20:23:31.436Z,7.60
2023-03-16T20:26:03.092Z,7.60
2023-03-16T20:28:35.641Z,7.60
2023-03-16T20:31:08.698Z,7.60
2023-03-16T20:33:39.015Z,7.60
2023-03-16T20:36:10.354Z,7.50
2023-03-16T20:38:39.244Z,7.50
2023-03-16T20:41:14.945Z,7.50
2023-03-16T20:43:44.208Z,7.50
2023-03-16T20:46:18.836Z,7.50
2023-03-16T20:48:48.911Z,7.50
2023-03-16T20:51:18.548Z,7.50
2023-03-16T20:53:49.165Z,7.50
2023-03-16T20:56:20.210Z,7.50
2023-03-16T20:58:50.069Z,7.50
2023-03-16T21:01:21.364Z,7.50
2023-03-16T21:03:55.308Z,7.50
2023-03-16T21:06:25.929Z,7.50
2023-03-16T21:08:55.930Z,7.60
2023-03-16T21:11:26.269Z,7.60
2023-03-16T21:13:55.072Z,7.60
2023-03-16T21:16:23.930Z,7.60
2023-03-16T21:18:53.723Z,7.50
2023-03-16T21:21:22.311Z,7.50
2023-03-16T21:23:50.603Z,7.50
2023-03-16T21:26:22.241Z,7.60
2023-03-16T21:28:56.597Z,7.60
2023-03-16T21:31:26.018Z,7.60
2023-03-16T21:33:56.070Z,7.60
2023-03-16T21:36:26.312Z,7.50
2023-03-16T21:38:55.841Z,7.50
2023-03-16T21:41:24.282Z,7.50
2023-03-16T21:43:54.489Z,7.50
2023-03-16T21:46:24.645Z,7.50
2023-03-16T21:48:56.224Z,7.50
2023-03-16T21:51:28.641Z,7.50
2023-03-16T21:53:58.117Z,7.50
2023-03-16T21:56:27.474Z,7.50
2023-03-16T21:58:55.914Z,7.50
2023-03-16T22:01:25.936Z,7.50
2023-03-16T22:03:58.492Z,7.50
2023-03-16T22:06:29.054Z,7.50
2023-03-16T22:08:59.711Z,7.50
2023-03-16T22:11:30.908Z,7.50
2023-03-16T22:14:00.336Z,7.50
2023-03-16T22:16:32.666Z,7.50
2023-03-16T22:19:02.383Z,7.40
2023-03-16T22:21:34.076Z,7.50
2023-03-16T22:24:05.458Z,7.50
2023-03-16T22:26:34.466Z,7.50
2023-03-16T22:29:04.327Z,7.40
2023-03-16T22:31:36.074Z,7.50
2023-03-16T22:34:06.475Z,7.50
2023-03-16T22:36:35.231Z,7.40
2023-03-16T22:39:06.001Z,7.40
2023-03-16T22:41:35.221Z,7.50
2023-03-16T22:44:04.154Z,7.50
2023-03-16T22:46:32.443Z,7.40
2023-03-16T22:49:01.436Z,7.30
2023-03-16T22:51:33.821Z,7.40
2023-03-16T22:54:04.462Z,7.40
2023-03-16T22:56:33.745Z,7.40
2023-03-16T22:59:05.381Z,7.40
2023-03-16T23:01:36.227Z,7.40
2023-03-16T23:04:04.836Z,7.40
2023-03-16T23:06:34.823Z,7.50
2023-03-16T23:09:05.007Z,7.50
2023-03-16T23:11:35.865Z,7.50
2023-03-16T23:14:05.263Z,7.50
2023-03-16T23:16:37.108Z,7.50
2023-03-16T23:19:18.758Z,7.50
2023-03-16T23:21:55.033Z,7.40
2023-03-16T23:24:23.595Z,7.40
2023-03-16T23:26:53.101Z,7.40
2023-03-16T23:29:22.749Z,7.50
2023-03-16T23:31:51.528Z,7.40
2023-03-16T23:34:22.663Z,7.50
2023-03-16T23:36:51.771Z,7.60
2023-03-16T23:39:21.512Z,7.70
2023-03-16T23:41:50.954Z,7.70
2023-03-16T23:44:23.118Z,7.80
2023-03-16T23:46:52.547Z,7.80
2023-03-16T23:49:23.644Z,7.80
2023-03-16T23:51:52.961Z,7.80
2023-03-16T23:54:25.439Z,7.80
2023-03-16T23:56:53.698Z,7.70
2023-03-16T23:59:23.565Z,7.80
